Time;durP1;ratioP1;P1;durP2;ratioP2;P2;SDS_P1;SDS_P2;PMS_P1;PMS_P2;Temp;Humidity;BMP_temperature;BMP_pressure;BME280_temperature;BME280_humidity;BME280_pressure;Samples;Min_cycle;Max_cycle;Signal;HPM_P1;HPM_P2
2022/06/22 00:00:00;;;;;;;7.97;4.07;;;15.90;99.90;;;;;;5036975;27;39225;-76
2022/06/22 00:02:34;;;;;;;7.80;3.97;;;15.90;99.90;;;;;;5030981;28;44951;-77
2022/06/22 00:05:06;;;;;;;5.38;4.18;;;15.90;99.90;;;;;;5067208;27;35949;-77
2022/06/22 00:07:42;;;;;;;;;;;15.90;99.90;;;;;;5038205;28;47191;-77
2022/06/22 00:10:37;;;;;;;9.07;4.63;;;15.90;99.90;;;;;;5033252;28;39618;-77
2022/06/22 00:13:13;;;;;;;6.80;4.45;;;15.90;99.90;;;;;;5054974;27;38487;-77
2022/06/22 00:15:51;;;;;;;7.07;4.38;;;15.80;99.90;;;;;;5056975;27;47427;-77
2022/06/22 00:18:39;;;;;;;10.35;4.85;;;15.70;99.90;;;;;;5071172;27;40853;-77
2022/06/22 00:21:28;;;;;;;9.25;4.53;;;15.70;99.90;;;;;;5053078;28;39723;-76
2022/06/22 00:23:58;;;;;;;7.45;4.38;;;15.60;99.90;;;;;;5045015;27;39197;-77
2022/06/22 00:26:24;;;;;;;6.88;4.82;;;15.60;99.90;;;;;;5038796;27;37004;-76
2022/06/22 00:29:02;;;;;;;8.75;5.07;;;15.60;99.90;;;;;;5037404;28;39685;-76
2022/06/22 00:31:31;;;;;;;5.90;4.80;;;15.60;99.90;;;;;;5039012;27;38881;-77
2022/06/22 00:34:09;;;;;;;10.88;5.20;;;15.50;99.90;;;;;;5040061;27;39345;-76
2022/06/22 00:36:40;;;;;;;12.80;5.30;;;15.50;99.90;;;;;;5041988;28;48111;-76
2022/06/22 00:39:26;;;;;;;8.80;5.72;;;15.40;99.90;;;;;;5042121;27;38918;-76
2022/06/22 00:42:14;;;;;;;9.50;5.47;;;15.40;99.90;;;;;;5036919;28;40401;-76
2022/06/22 00:44:51;;;;;;;8.98;4.95;;;15.40;99.90;;;;;;5052730;27;48691;-76
2022/06/22 00:47:32;;;;;;;10.07;5.03;;;15.40;99.90;;;;;;5052633;27;37263;-76
2022/06/22 00:50:20;;;;;;;8.43;5.78;;;15.30;99.90;;;;;;5042993;28;39653;-77
2022/06/22 00:53:21;;;;;;;9.38;5.40;;;15.30;99.90;;;;;;5063271;28;47654;-76
2022/06/22 00:56:13;;;;;;;8.57;5.43;;;15.30;99.90;;;;;;5049601;28;48721;-77
2022/06/22 00:58:39;;;;;;;7.35;5.28;;;15.30;99.90;;;;;;5065613;28;47076;-76
2022/06/22 01:01:15;;;;;;;9.57;6.45;;;15.30;99.90;;;;;;5054229;28;38916;-76
2022/06/22 01:04:02;;;;;;;11.23;6.40;;;15.30;99.90;;;;;;5064830;28;40220;-76
2022/06/22 01:06:50;;;;;;;12.32;6.63;;;15.30;99.90;;;;;;5073697;27;48867;-76
2022/06/22 01:09:45;;;;;;;8.63;6.10;;;15.30;99.90;;;;;;5063534;28;37973;-76
2022/06/22 01:12:22;;;;;;;12.65;6.05;;;15.30;99.90;;;;;;5059628;28;40375;-76
2022/06/22 01:15:12;;;;;;;10.00;6.40;;;15.40;99.90;;;;;;5042985;27;38869;-77
2022/06/22 01:17:52;;;;;;;8.32;5.57;;;15.40;99.90;;;;;;5090662;27;47279;-76
2022/06/22 01:20:21;;;;;;;10.23;6.40;;;15.40;99.90;;;;;;5062111;27;38135;-76
2022/06/22 01:23:16;;;;;;;12.70;6.25;;;15.40;99.90;;;;;;5058377;28;39938;-76
2022/06/22 01:25:56;;;;;;;13.07;6.43;;;15.30;99.90;;;;;;5061261;28;47673;-76
2022/06/22 01:28:25;;;;;;;8.02;6.32;;;15.30;99.90;;;;;;5055978;27;40105;-76
2022/06/22 01:30:55;;;;;;;12.65;7.10;;;15.30;99.90;;;;;;5048239;28;37275;-76
2022/06/22 01:33:37;;;;;;;11.40;7.00;;;15.20;99.90;;;;;;5054519;28;39913;-75
2022/06/22 01:36:16;;;;;;;;;;;15.20;99.90;;;;;;5071114;27;39890;-77
2022/06/22 01:38:42;;;;;;;7.88;5.93;;;15.20;99.90;;;;;;5074644;27;38788;-77
2022/06/22 01:41:20;;;;;;;8.30;6.00;;;15.20;99.90;;;;;;5088988;27;36912;-77
2022/06/22 01:43:51;;;;;;;9.55;6.32;;;15.30;99.90;;;;;;5073332;27;39665;-77
2022/06/22 01:46:38;;;;;;;8.45;6.30;;;15.30;99.90;;;;;;5056462;28;38272;-76
2022/06/22 01:49:14;;;;;;;10.15;6.55;;;15.20;99.90;;;;;;5052503;27;39027;-77
2022/06/22 01:51:50;;;;;;;10.52;6.50;;;15.20;99.90;;;;;;5057788;28;37967;-77
2022/06/22 01:54:25;;;;;;;13.75;6.90;;;15.20;99.90;;;;;;5051620;27;39014;-76
2022/06/22 01:57:15;;;;;;;11.88;7.28;;;15.20;99.90;;;;;;5057191;28;39690;-77
2022/06/22 01:59:50;;;;;;;7.47;6.13;;;15.20;99.90;;;;;;5078152;28;47000;-78
2022/06/22 02:02:38;;;;;;;11.27;6.90;;;15.10;99.90;;;;;;5062520;27;38302;-76
2022/06/22 02:05:24;;;;;;;12.00;6.90;;;15.10;99.90;;;;;;5078787;27;39959;-77
2022/06/22 02:08:08;;;;;;;16.58;7.35;;;15.00;99.90;;;;;;5058695;28;39985;-77
2022/06/22 02:10:44;;;;;;;7.97;6.22;;;14.90;99.90;;;;;;5063142;27;48803;-77
2022/06/22 02:13:37;;;;;;;10.02;7.07;;;14.90;99.90;;;;;;5061603;27;38308;-77
2022/06/22 02:16:13;;;;;;;11.77;7.13;;;14.90;99.90;;;;;;5058749;27;40408;-77
2022/06/22 02:19:09;;;;;;;15.32;7.53;;;14.90;99.90;;;;;;5058285;27;38657;-77
2022/06/22 02:21:40;;;;;;;8.88;6.30;;;14.80;99.90;;;;;;5054720;28;47145;-77
2022/06/22 02:24:46;;;;;;;13.77;8.27;;;14.80;99.90;;;;;;5054369;28;37836;-77
2022/06/22 02:27:14;;;;;;;11.85;7.60;;;14.70;99.90;;;;;;5064950;28;38117;-77
2022/06/22 02:29:46;;;;;;;8.43;6.63;;;14.80;99.90;;;;;;5070138;28;39608;-77
2022/06/22 02:32:15;;;;;;;;;;;14.80;99.90;;;;;;5093954;27;38111;-77
2022/06/22 02:34:46;;;;;;;12.88;8.10;;;14.70;99.90;;;;;;5045257;28;38294;-78
2022/06/22 02:37:13;;;;;;;13.95;8.40;;;14.70;99.90;;;;;;5060873;27;38522;-77
2022/06/22 02:39:44;;;;;;;8.15;6.97;;;14.70;99.90;;;;;;5083584;28;39004;-77
2022/06/22 02:44:56;;;;;;;11.48;7.97;;;14.80;99.90;;;;;;5041942;28;38076;-77
2022/06/22 02:47:45;;;;;;;13.35;8.70;;;14.70;99.90;;;;;;5036539;28;39113;-77
2022/06/22 02:50:41;;;;;;;14.10;8.32;;;14.80;99.90;;;;;;5040702;28;39455;-76
2022/06/22 02:53:25;;;;;;;10.68;8.45;;;14.80;99.90;;;;;;5040101;28;39032;-77
2022/06/22 02:55:52;;;;;;;11.52;7.78;;;14.80;99.90;;;;;;5057212;28;38672;-76
2022/06/22 02:58:33;;;;;;;16.83;7.93;;;14.80;99.90;;;;;;5065513;27;38835;-77
2022/06/22 03:01:12;;;;;;;11.43;7.63;;;14.80;99.90;;;;;;5056754;28;38213;-76
2022/06/22 03:03:40;;;;;;;13.43;7.65;;;14.80;99.90;;;;;;5057657;28;47296;-76
2022/06/22 03:06:10;;;;;;;11.20;8.18;;;14.80;99.90;;;;;;5057169;27;37183;-76
2022/06/22 03:08:37;;;;;;;11.02;7.47;;;14.80;99.90;;;;;;5054600;28;37048;-76
2022/06/22 03:11:08;;;;;;;9.68;7.28;;;14.70;99.90;;;;;;5038520;28;39352;-76
2022/06/22 03:14:17;;;;;;;11.38;8.13;;;14.70;99.90;;;;;;5082380;28;39412;-76
2022/06/22 03:16:47;;;;;;;14.38;8.98;;;14.70;99.90;;;;;;5032491;28;48655;-76
2022/06/22 03:19:17;;;;;;;14.30;8.20;;;14.60;99.90;;;;;;5033603;28;37965;-76
2022/06/22 03:21:44;;;;;;;11.10;7.30;;;14.60;99.90;;;;;;5039458;28;38264;-76
2022/06/22 03:24:34;;;;;;;10.18;7.85;;;14.60;99.90;;;;;;5088749;27;37399;-76
2022/06/22 03:27:11;;;;;;;13.88;7.60;;;14.60;99.90;;;;;;5053859;28;38629;-76
2022/06/22 03:29:48;;;;;;;11.43;7.70;;;14.60;99.90;;;;;;5082964;28;47412;-77
2022/06/22 03:32:22;;;;;;;11.25;7.45;;;14.60;99.90;;;;;;5040919;28;39045;-76
2022/06/22 03:34:53;;;;;;;8.30;6.80;;;14.60;99.90;;;;;;5053699;28;37751;-76
2022/06/22 03:37:24;;;;;;;10.63;6.55;;;14.60;99.90;;;;;;5089418;27;39184;-76
2022/06/22 03:39:56;;;;;;;13.45;7.90;;;14.60;99.90;;;;;;5080592;27;37806;-76
2022/06/22 03:42:28;;;;;;;13.95;7.95;;;14.60;99.90;;;;;;5046794;28;38799;-76
2022/06/22 03:45:13;;;;;;;9.90;6.97;;;14.60;99.90;;;;;;5042584;28;39317;-77
2022/06/22 03:48:00;;;;;;;11.77;7.68;;;14.60;99.90;;;;;;5067947;28;47803;-76
2022/06/22 03:50:56;;;;;;;10.48;7.53;;;14.60;99.90;;;;;;5056582;27;38734;-77
2022/06/22 03:53:35;;;;;;;11.88;7.32;;;14.60;99.90;;;;;;5038631;27;38474;-77
2022/06/22 03:56:07;;;;;;;11.10;7.28;;;14.50;99.90;;;;;;5069490;27;38989;-77
2022/06/22 03:58:34;;;;;;;8.65;7.38;;;14.50;99.90;;;;;;5038708;28;47181;-76
2022/06/22 04:01:03;;;;;;;9.07;7.32;;;14.50;99.90;;;;;;5041201;28;39822;-76
2022/06/22 04:03:29;;;;;;;16.05;7.95;;;14.50;99.90;;;;;;5036135;28;47316;-76
2022/06/22 04:05:58;;;;;;;12.68;6.78;;;14.50;99.90;;;;;;5055306;28;38587;-76
2022/06/22 04:08:35;;;;;;;9.68;8.10;;;14.50;99.90;;;;;;5074365;28;36336;-76
2022/06/22 04:11:29;;;;;;;13.52;9.05;;;14.60;99.90;;;;;;5040857;28;39999;-77
2022/06/22 04:14:11;;;;;;;11.30;9.48;;;14.60;99.90;;;;;;5087016;27;40605;-76
2022/06/22 04:16:40;;;;;;;13.40;10.57;;;14.50;99.90;;;;;;5081892;27;46963;-76
2022/06/22 04:19:15;;;;;;;13.23;11.10;;;14.60;99.90;;;;;;5055798;28;37603;-77
2022/06/22 04:21:46;;;;;;;15.82;11.05;;;14.60;99.90;;;;;;5053054;28;38008;-77
2022/06/22 04:24:17;;;;;;;15.07;12.15;;;14.60;99.90;;;;;;5062002;27;39900;-76
2022/06/22 04:26:49;;;;;;;14.17;11.37;;;14.60;99.90;;;;;;5056943;28;38095;-76
2022/06/22 04:29:35;;;;;;;19.90;12.30;;;14.60;99.90;;;;;;5062177;27;38548;-77
2022/06/22 04:32:16;;;;;;;17.42;12.57;;;14.70;99.90;;;;;;5044447;28;38961;-78
2022/06/22 04:34:49;;;;;;;20.60;12.20;;;14.80;99.90;;;;;;5056236;28;40467;-76
2022/06/22 04:37:38;;;;;;;15.77;12.32;;;14.80;99.90;;;;;;5055362;27;38163;-77
2022/06/22 04:40:25;;;;;;;15.43;13.07;;;14.90;99.90;;;;;;5045937;27;37430;-77
2022/06/22 04:42:57;;;;;;;16.52;12.60;;;14.90;99.90;;;;;;5060571;28;37514;-77
2022/06/22 04:45:33;;;;;;;21.27;13.30;;;14.90;99.90;;;;;;5080642;27;37746;-78
2022/06/22 04:48:08;;;;;;;15.90;12.25;;;15.00;99.90;;;;;;5058017;28;39101;-76
2022/06/22 04:50:41;;;;;;;17.63;11.65;;;15.00;99.90;;;;;;5054400;28;48157;-76
2022/06/22 04:53:21;;;;;;;15.32;11.98;;;15.10;99.90;;;;;;5068717;27;39545;-77
2022/06/22 04:55:48;;;;;;;13.50;11.82;;;15.10;99.90;;;;;;5048325;28;39760;-77
2022/06/22 04:58:42;;;;;;;15.95;11.00;;;15.20;99.90;;;;;;5064664;27;39312;-77
2022/06/22 05:01:24;;;;;;;18.65;11.77;;;15.30;99.90;;;;;;5063651;28;37452;-77
2022/06/22 05:03:56;;;;;;;14.70;11.15;;;15.70;99.90;;;;;;5060070;28;40204;-78
2022/06/22 05:06:56;;;;;;;12.60;9.48;;;16.10;99.90;;;;;;5057713;27;38611;-77
2022/06/22 05:09:32;;;;;;;11.30;10.00;;;16.60;99.90;;;;;;5057991;27;37485;-78
2022/06/22 05:12:00;;;;;;;14.95;9.75;;;16.90;99.90;;;;;;5069442;27;37644;-78
2022/06/22 05:14:32;;;;;;;13.38;9.23;;;17.20;99.90;;;;;;5039386;28;38821;-78
2022/06/22 05:17:18;;;;;;;;;;;17.40;99.90;;;;;;5058224;28;40275;-78
2022/06/22 05:19:58;;;;;;;10.68;8.02;;;17.60;99.90;;;;;;5058691;28;48501;-77
2022/06/22 05:22:24;;;;;;;11.80;7.80;;;17.80;99.90;;;;;;5064047;27;37115;-77
2022/06/22 05:24:57;;;;;;;10.23;8.10;;;18.00;99.90;;;;;;5048214;28;39441;-76
2022/06/22 05:27:28;;;;;;;10.15;7.65;;;18.20;99.90;;;;;;5055445;28;39323;-76
2022/06/22 05:30:00;;;;;;;10.43;8.27;;;18.40;99.90;;;;;;5065532;27;38641;-77
2022/06/22 05:32:32;;;;;;;10.65;7.13;;;18.50;99.90;;;;;;5073262;28;38891;-77
2022/06/22 05:34:59;;;;;;;8.95;7.50;;;18.60;99.90;;;;;;5045390;28;38629;-77
2022/06/22 05:37:39;;;;;;;12.15;7.95;;;18.70;99.90;;;;;;5041859;28;40516;-76
2022/06/22 05:40:06;;;;;;;8.98;7.10;;;18.80;99.90;;;;;;5055678;28;39722;-76
2022/06/22 05:42:34;;;;;;;11.48;8.43;;;19.00;99.90;;;;;;5045204;28;37279;-77
2022/06/22 05:45:01;;;;;;;13.60;9.98;;;19.10;99.90;;;;;;5058371;28;38664;-76
2022/06/22 05:47:30;;;;;;;10.60;7.85;;;19.10;99.90;;;;;;5063260;27;48906;-77
2022/06/22 05:50:09;;;;;;;8.88;7.20;;;19.10;99.90;;;;;;5061188;28;39334;-77
2022/06/22 05:52:59;;;;;;;10.75;8.32;;;19.30;99.90;;;;;;5070181;27;47884;-77
2022/06/22 05:55:32;;;;;;;10.02;7.07;;;19.60;99.90;;;;;;5059477;27;40554;-76
2022/06/22 05:58:26;;;;;;;9.75;6.57;;;19.60;99.90;;;;;;5076230;27;37250;-77
2022/06/22 06:00:55;;;;;;;9.32;6.95;;;19.70;99.90;;;;;;5058385;28;47479;-77
2022/06/22 06:03:45;;;;;;;11.50;6.65;;;19.80;99.90;;;;;;5060227;28;38430;-77
2022/06/22 06:06:19;;;;;;;11.65;6.82;;;19.80;99.90;;;;;;5039600;28;40774;-77
2022/06/22 06:08:59;;;;;;;8.02;5.25;;;19.90;99.90;;;;;;5047551;28;40204;-77
2022/06/22 06:11:35;;;;;;;9.77;6.47;;;20.00;99.90;;;;;;5044120;28;39394;-76
2022/06/22 06:14:07;;;;;;;11.68;6.22;;;20.10;99.90;;;;;;5045636;28;38797;-77
2022/06/22 06:16:48;;;;;;;9.93;6.38;;;20.10;99.90;;;;;;5048803;28;40409;-76
2022/06/22 06:19:19;;;;;;;13.95;6.10;;;20.30;99.90;;;;;;5032692;28;40531;-76
2022/06/22 06:21:45;;;;;;;7.20;5.18;;;20.40;99.90;;;;;;5050015;28;39256;-75
2022/06/22 06:24:24;;;;;;;9.85;5.50;;;20.60;99.90;;;;;;5060707;27;38412;-76
2022/06/22 06:30:15;;;;;;;9.38;4.85;;;20.80;99.90;;;;;;5057249;27;50284;-76
2022/06/22 06:32:52;;;;;;;8.40;5.00;;;20.90;99.90;;;;;;5059516;28;48131;-76
2022/06/22 06:35:36;;;;;;;8.90;5.35;;;20.90;99.90;;;;;;5063358;27;38091;-76
2022/06/22 06:38:11;;;;;;;9.35;5.20;;;21.10;99.90;;;;;;5092100;28;39361;-77
2022/06/22 06:40:48;;;;;;;8.88;5.60;;;21.10;99.90;;;;;;5066362;27;38408;-76
2022/06/22 06:43:36;;;;;;;8.45;4.88;;;21.10;99.90;;;;;;5060112;27;38835;-76
2022/06/22 06:46:22;;;;;;;10.05;5.20;;;20.90;99.90;;;;;;5051478;28;39781;-76
2022/06/22 06:49:20;;;;;;;9.80;6.13;;;20.90;99.90;;;;;;5038507;27;39894;-78
2022/06/22 06:52:12;;;;;;;8.43;4.43;;;21.00;99.90;;;;;;5044674;28;47210;-76
2022/06/22 06:54:48;;;;;;;;;;;21.00;99.90;;;;;;5056596;28;47490;-76
2022/06/22 06:57:19;;;;;;;8.88;4.88;;;21.20;99.90;;;;;;5065092;28;36768;-76
2022/06/22 06:59:53;;;;;;;9.90;4.88;;;21.30;99.90;;;;;;5061985;27;38766;-78
2022/06/22 07:02:30;;;;;;;13.02;5.30;;;21.40;99.90;;;;;;5064436;28;40218;-78
2022/06/22 07:04:57;;;;;;;7.03;4.03;;;21.60;99.90;;;;;;5066919;27;39523;-76
2022/06/22 07:07:36;;;;;;;6.78;3.65;;;21.70;99.90;;;;;;5054904;28;36761;-76
2022/06/22 07:10:29;;;;;;;8.25;3.30;;;21.80;99.90;;;;;;5041560;28;39559;-76
2022/06/22 07:13:06;;;;;;;7.13;3.20;;;22.10;99.90;;;;;;5063671;28;47254;-76
2022/06/22 07:15:40;;;;;;;5.93;2.80;;;22.30;99.90;;;;;;5072618;27;48738;-76
2022/06/22 07:18:30;;;;;;;8.38;3.17;;;22.10;99.90;;;;;;5068790;27;37965;-76
2022/06/22 07:21:23;;;;;;;8.70;3.00;;;22.10;99.90;;;;;;5061716;28;39332;-76
2022/06/22 07:23:55;;;;;;;6.20;3.03;;;22.40;99.90;;;;;;5039698;28;48452;-77
2022/06/22 07:26:55;;;;;;;7.30;2.70;;;22.60;99.90;;;;;;5063306;27;38729;-77
2022/06/22 07:29:43;;;;;;;6.47;2.80;;;22.60;99.90;;;;;;5065478;27;36124;-76
2022/06/22 07:32:11;;;;;;;7.38;3.13;;;22.60;99.90;;;;;;5066188;27;38641;-77
2022/06/22 07:34:45;;;;;;;7.43;3.72;;;22.60;99.90;;;;;;5065734;28;37808;-76
2022/06/22 07:37:42;;;;;;;3.75;2.70;;;22.10;99.90;;;;;;5062753;27;38956;-77
2022/06/22 07:40:16;;;;;;;5.75;3.05;;;22.30;99.90;;;;;;5081387;27;38137;-77
2022/06/22 07:42:45;;;;;;;5.60;3.45;;;22.50;99.90;;;;;;5063103;27;38673;-77
2022/06/22 07:45:17;;;;;;;5.72;3.13;;;22.40;99.90;;;;;;5076054;28;41461;-77
2022/06/22 07:47:51;;;;;;;;;;;22.40;99.90;;;;;;5053870;28;40131;-78
2022/06/22 07:50:28;;;;;;;5.10;2.60;;;22.60;99.90;;;;;;5064497;28;37823;-78
2022/06/22 07:53:22;;;;;;;5.70;3.30;;;22.60;99.90;;;;;;5060021;28;37834;-77
2022/06/22 07:56:01;;;;;;;5.40;3.10;;;22.80;99.90;;;;;;5057601;28;47007;-77
2022/06/22 07:58:33;;;;;;;6.40;3.15;;;22.80;99.90;;;;;;5058931;27;48650;-78
2022/06/22 08:01:05;;;;;;;;;;;23.10;99.90;;;;;;5064704;27;38832;-77
2022/06/22 08:03:42;;;;;;;9.40;3.60;;;23.30;99.90;;;;;;5078906;27;47278;-77
2022/06/22 08:06:13;;;;;;;9.18;4.60;;;23.30;99.90;;;;;;5038404;28;38922;-78
2022/06/22 08:08:53;;;;;;;6.03;2.65;;;23.30;99.90;;;;;;5094601;27;39372;-77
2022/06/22 08:11:43;;;;;;;6.30;3.40;;;23.10;99.90;;;;;;5049591;28;36502;-77
2022/06/22 08:14:22;;;;;;;8.38;2.58;;;23.50;99.90;;;;;;5059135;28;38927;-76
2022/06/22 08:16:58;;;;;;;4.85;2.58;;;23.80;99.90;;;;;;5062044;28;37901;-77
2022/06/22 08:19:27;;;;;;;12.27;3.45;;;23.90;99.90;;;;;;5042919;28;37508;-76
2022/06/22 08:21:58;;;;;;;4.25;2.20;;;23.90;99.90;;;;;;5049989;28;38224;-76
2022/06/22 08:24:25;;;;;;;5.70;2.70;;;24.10;99.90;;;;;;5059627;27;39799;-76
2022/06/22 08:26:54;;;;;;;4.82;2.80;;;24.10;99.90;;;;;;5080989;27;37795;-77
2022/06/22 08:29:24;;;;;;;7.47;2.95;;;24.10;99.90;;;;;;5080420;27;38495;-77
2022/06/22 08:31:58;;;;;;;6.55;2.42;;;24.10;99.90;;;;;;5062083;28;36226;-77
2022/06/22 08:34:40;;;;;;;5.00;2.50;;;24.30;99.90;;;;;;5056147;28;39162;-77
2022/06/22 08:37:11;;;;;;;4.78;2.60;;;24.50;99.90;;;;;;5057627;27;40372;-77
2022/06/22 08:39:48;;;;;;;5.10;2.40;;;24.60;99.90;;;;;;5053933;28;37483;-77
2022/06/22 08:42:47;;;;;;;4.10;2.78;;;24.60;99.90;;;;;;5034146;28;36305;-77
2022/06/22 08:45:22;;;;;;;5.13;2.13;;;24.60;99.90;;;;;;5040093;28;39110;-77
2022/06/22 08:48:01;;;;;;;4.65;2.45;;;24.80;99.90;;;;;;5040735;28;38831;-77
2022/06/22 08:50:42;;;;;;;5.57;3.15;;;24.90;99.90;;;;;;5042565;28;39079;-77
2022/06/22 08:53:17;;;;;;;10.18;2.85;;;24.80;99.90;;;;;;5048508;27;36709;-76
2022/06/22 08:55:59;;;;;;;5.05;2.78;;;24.90;99.90;;;;;;5044154;28;37511;-77
2022/06/22 08:58:29;;;;;;;5.18;2.70;;;25.10;99.90;;;;;;5045298;28;37481;-78
2022/06/22 09:01:18;;;;;;;5.23;2.60;;;25.10;99.90;;;;;;5032489;28;36793;-77
2022/06/22 09:04:28;;;;;;;5.28;2.70;;;25.30;99.90;;;;;;5061050;28;47413;-76
2022/06/22 09:07:14;;;;;;;3.45;2.53;;;25.10;99.90;;;;;;5063982;28;48416;-76
2022/06/22 09:10:22;;;;;;;4.50;2.33;;;25.20;99.90;;;;;;5058342;27;48792;-76
2022/06/22 09:13:15;;;;;;;6.32;2.67;;;25.20;99.90;;;;;;5045843;28;47521;-75
2022/06/22 09:16:07;;;;;;;5.60;3.15;;;25.50;99.90;;;;;;5053903;28;48776;-76
2022/06/22 09:19:07;;;;;;;5.18;2.45;;;25.80;99.90;;;;;;5097224;27;47351;-76
2022/06/22 09:21:56;;;;;;;4.93;1.70;;;25.50;99.90;;;;;;5062174;28;47208;-76
2022/06/22 09:24:38;;;;;;;4.78;1.80;;;25.30;99.90;;;;;;5066055;28;38916;-75
2022/06/22 09:27:25;;;;;;;6.35;2.47;;;25.10;99.90;;;;;;5063631;28;37960;-78
2022/06/22 09:30:24;;;;;;;4.47;2.45;;;25.20;99.90;;;;;;5065954;28;38674;-76
2022/06/22 09:32:59;;;;;;;6.13;2.63;;;25.50;99.90;;;;;;5067658;28;48576;-76
2022/06/22 09:35:53;;;;;;;4.40;2.20;;;25.40;99.90;;;;;;5082961;28;39309;-77
2022/06/22 09:38:22;;;;;;;7.03;2.67;;;25.60;99.90;;;;;;5063437;28;36591;-77
2022/06/22 09:41:14;;;;;;;5.05;1.70;;;25.90;99.90;;;;;;5065371;28;37817;-77
2022/06/22 09:44:14;;;;;;;7.13;2.00;;;26.00;99.90;;;;;;5066660;27;48879;-76
2022/06/22 09:46:49;;;;;;;3.55;1.90;;;26.10;99.90;;;;;;5062427;28;47343;-76
2022/06/22 09:49:30;;;;;;;3.45;2.17;;;26.40;99.90;;;;;;5069253;28;37517;-77
2022/06/22 09:52:08;;;;;;;4.50;1.83;;;26.50;99.90;;;;;;5072711;27;39441;-76
2022/06/22 09:57:57;;;;;;;3.75;1.77;;;26.50;99.90;;;;;;5060081;28;49019;-76
2022/06/22 10:00:36;;;;;;;3.60;1.60;;;26.50;99.90;;;;;;5055442;27;38193;-75
2022/06/22 10:03:48;;;;;;;7.15;2.20;;;26.60;99.90;;;;;;5055733;28;40473;-76
2022/06/22 10:06:44;;;;;;;5.03;1.60;;;26.60;99.90;;;;;;5048979;28;37705;-77
2022/06/22 10:09:27;;;;;;;3.30;1.90;;;26.30;99.90;;;;;;5061433;28;38393;-77
2022/06/22 10:12:32;;;;;;;4.10;1.58;;;26.30;99.90;;;;;;5065710;27;36960;-78
2022/06/22 10:15:02;;;;;;;5.55;1.58;;;26.50;99.90;;;;;;5055602;28;47472;-77
2022/06/22 10:17:35;;;;;;;2.95;1.50;;;26.60;99.90;;;;;;5056086;28;47444;-77
2022/06/22 10:20:01;;;;;;;3.08;1.20;;;26.90;99.90;;;;;;5063653;27;38048;-78
2022/06/22 10:23:05;;;;;;;4.75;2.20;;;27.00;99.90;;;;;;5064171;27;37358;-78
2022/06/22 10:26:02;;;;;;;3.47;1.88;;;26.90;99.90;;;;;;5058480;27;48965;-78
2022/06/22 10:28:55;;;;;;;3.08;1.90;;;27.00;99.90;;;;;;5048678;27;49672;-77
2022/06/22 10:31:34;;;;;;;3.80;1.80;;;26.50;99.90;;;;;;5050254;27;40501;-78
2022/06/22 10:34:38;;;;;;;4.05;1.65;;;26.30;99.90;;;;;;5066486;28;38050;-77
2022/06/22 10:37:07;;;;;;;3.20;1.50;;;26.80;99.90;;;;;;5051657;27;47443;-78
2022/06/22 10:39:48;;;;;;;2.17;1.35;;;26.90;99.90;;;;;;5061816;28;37336;-78
2022/06/22 10:45:28;;;;;;;;;;;26.50;99.90;;;;;;5062835;27;37858;-76
2022/06/22 10:48:36;;;;;;;3.60;1.52;;;26.70;99.90;;;;;;5074057;28;38090;-76
2022/06/22 10:51:05;;;;;;;3.15;1.60;;;27.10;99.90;;;;;;5061835;27;48550;-76
2022/06/22 10:54:02;;;;;;;2.45;1.50;;;27.50;99.90;;;;;;5044083;28;39751;-77
2022/06/22 10:56:46;;;;;;;4.85;1.20;;;27.40;99.90;;;;;;5049524;28;48500;-77
2022/06/22 10:59:21;;;;;;;3.05;1.40;;;27.70;99.90;;;;;;5054328;28;39882;-78
2022/06/22 11:02:09;;;;;;;6.93;3.72;;;27.40;99.90;;;;;;5036937;28;39217;-77
2022/06/22 11:05:12;;;;;;;4.35;1.45;;;27.70;99.90;;;;;;5068836;28;48340;-77
2022/06/22 11:08:00;;;;;;;8.52;3.97;;;27.70;99.90;;;;;;5067074;28;47359;-77
2022/06/22 11:10:29;;;;;;;2.38;1.40;;;28.00;99.90;;;;;;5057394;28;37967;-77
2022/06/22 11:13:13;;;;;;;4.20;1.60;;;27.90;99.90;;;;;;5071572;28;38797;-77
2022/06/22 11:16:25;;;;;;;1.98;0.98;;;28.10;99.90;;;;;;5046345;28;48648;-78
2022/06/22 11:19:18;;;;;;;2.17;1.33;;;28.20;99.90;;;;;;5028646;28;49067;-77
2022/06/22 11:22:02;;;;;;;5.25;2.05;;;28.00;99.90;;;;;;5054070;28;47511;-77
2022/06/22 11:24:44;;;;;;;2.35;1.30;;;27.60;99.90;;;;;;5048857;28;47076;-77
2022/06/22 11:30:58;;;;;;;1.73;0.80;;;28.10;99.90;;;;;;5039338;28;49325;-77
2022/06/22 11:33:52;;;;;;;3.67;1.45;;;28.10;99.90;;;;;;5022464;28;39917;-78
2022/06/22 11:36:56;;;;;;;3.15;1.30;;;27.70;99.90;;;;;;5090917;27;39281;-78
2022/06/22 11:39:35;;;;;;;2.90;0.90;;;27.60;99.90;;;;;;5034035;28;38478;-77
2022/06/22 11:42:29;;;;;;;2.60;1.08;;;27.80;99.90;;;;;;5085043;28;38293;-78
2022/06/22 11:48:07;;;;;;;3.28;1.70;;;28.40;99.90;;;;;;5030790;28;49040;-78
2022/06/22 11:50:36;;;;;;;2.75;1.70;;;28.70;99.90;;;;;;5056420;28;47183;-77
2022/06/22 11:53:02;;;;;;;4.97;1.40;;;28.50;99.90;;;;;;5042518;28;36756;-77
2022/06/22 11:55:37;;;;;;;5.05;2.15;;;28.70;99.90;;;;;;5062765;27;48418;-77
2022/06/22 11:58:06;;;;;;;4.47;1.17;;;28.70;99.90;;;;;;5072135;27;38077;-77
2022/06/22 12:00:32;;;;;;;2.05;0.98;;;29.00;99.90;;;;;;5068862;27;39034;-77
2022/06/22 12:03:18;;;;;;;2.28;0.90;;;29.10;99.90;;;;;;5060261;28;39062;-75
2022/06/22 12:06:06;;;;;;;1.67;0.70;;;28.60;99.90;;;;;;5074300;28;47879;-77
2022/06/22 12:08:52;;;;;;;0.93;0.65;;;28.70;99.90;;;;;;5053034;27;49165;-76
2022/06/22 12:11:39;;;;;;;1.98;0.70;;;29.10;99.90;;;;;;5059308;27;39076;-77
2022/06/22 12:17:41;;;;;;;2.35;1.00;;;29.20;99.90;;;;;;5059761;28;40272;-78
2022/06/22 12:20:16;;;;;;;2.22;0.80;;;29.20;99.90;;;;;;5054134;28;38676;-78
2022/06/22 12:22:51;;;;;;;2.03;0.70;;;28.90;99.60;;;;;;5049215;28;38462;-78
2022/06/22 12:25:58;;;;;;;2.50;0.93;;;28.80;99.90;;;;;;5050740;28;38924;-78
2022/06/22 12:28:52;;;;;;;1.77;1.00;;;29.10;99.90;;;;;;4971564;28;40376;-80
2022/06/22 12:31:21;;;;;;;1.30;0.63;;;28.90;98.80;;;;;;5059720;28;40060;-80
2022/06/22 12:33:51;;;;;;;2.63;0.73;;;29.10;97.60;;;;;;5052316;28;40798;-80
2022/06/22 12:36:45;;;;;;;1.08;0.52;;;28.80;96.70;;;;;;5055062;28;38630;-79
2022/06/22 12:39:19;;;;;;;1.27;0.32;;;28.20;94.70;;;;;;5067578;28;39238;-80
2022/06/22 12:42:09;;;;;;;0.68;0.40;;;27.70;97.00;;;;;;5054532;28;40047;-79
2022/06/22 12:45:00;;;;;;;1.77;0.50;;;27.80;96.10;;;;;;5016964;27;1254695;-80
2022/06/22 12:47:35;;;;;;;1.70;0.28;;;27.60;93.50;;;;;;5051152;27;38084;-79
2022/06/22 12:50:38;;;;;;;0.52;0.30;;;27.80;93.10;;;;;;5059073;28;40795;-79
2022/06/22 12:53:10;;;;;;;1.40;0.30;;;28.30;94.80;;;;;;5058072;28;48676;-80
2022/06/22 12:55:53;;;;;;;3.05;0.60;;;28.70;95.70;;;;;;5052303;28;40054;-80
2022/06/22 12:58:28;;;;;;;0.52;0.30;;;28.90;95.90;;;;;;5045007;28;37877;-80
2022/06/22 13:00:57;;;;;;;1.50;0.50;;;29.10;95.10;;;;;;5053533;28;39215;-80
2022/06/22 13:03:32;;;;;;;0.90;0.40;;;29.10;95.20;;;;;;5045588;28;40123;-79
2022/06/22 13:05:59;;;;;;;2.38;0.40;;;29.10;95.80;;;;;;5057272;28;38651;-79
2022/06/22 13:08:27;;;;;;;1.30;0.50;;;29.10;96.70;;;;;;5057425;27;36101;-79
2022/06/22 13:10:59;;;;;;;1.45;0.57;;;29.30;95.80;;;;;;5045712;28;40932;-79
2022/06/22 13:14:01;;;;;;;0.90;0.57;;;28.50;95.70;;;;;;5036312;28;39778;-79
2022/06/22 13:16:47;;;;;;;2.75;0.50;;;28.80;96.50;;;;;;5057439;28;47439;-80
2022/06/22 13:19:28;;;;;;;2.33;1.20;;;28.90;93.80;;;;;;5084320;28;38981;-80
2022/06/22 13:22:21;;;;;;;1.27;0.68;;;29.00;96.00;;;;;;5064586;28;39192;-80
2022/06/22 13:25:00;;;;;;;2.17;0.70;;;29.00;95.60;;;;;;5061423;28;48331;-80
2022/06/22 13:27:29;;;;;;;1.35;0.70;;;28.90;94.40;;;;;;5056170;28;39516;-79
2022/06/22 13:30:07;;;;;;;1.38;0.82;;;28.90;96.60;;;;;;5073576;28;36524;-79
2022/06/22 13:32:36;;;;;;;1.77;0.63;;;29.10;97.20;;;;;;5057712;28;48717;-79
2022/06/22 13:35:10;;;;;;;1.25;0.47;;;29.00;98.50;;;;;;5046367;28;39919;-79
2022/06/22 13:37:56;;;;;;;2.28;0.77;;;29.20;97.70;;;;;;5041416;28;40364;-79
2022/06/22 13:40:50;;;;;;;1.35;0.68;;;28.70;94.00;;;;;;5037324;28;36323;-79
2022/06/22 13:43:23;;;;;;;1.77;0.80;;;28.60;94.60;;;;;;5035961;28;40947;-80
2022/06/22 13:46:18;;;;;;;2.00;0.70;;;28.60;96.30;;;;;;5042766;28;40688;-79
2022/06/22 13:48:53;;;;;;;1.95;0.88;;;28.70;95.80;;;;;;5062519;28;47204;-80
2022/06/22 13:51:46;;;;;;;2.30;0.93;;;28.70;95.50;;;;;;5064797;28;36838;-79
2022/06/22 13:54:18;;;;;;;1.08;0.70;;;28.40;94.10;;;;;;5063246;28;39919;-79
2022/06/22 13:57:01;;;;;;;4.78;0.98;;;28.20;96.80;;;;;;5060487;28;40522;-80
2022/06/22 13:59:42;;;;;;;2.20;0.90;;;28.20;96.50;;;;;;5058478;28;48294;-79
2022/06/22 14:02:15;;;;;;;1.70;0.88;;;28.30;97.90;;;;;;5072646;27;37736;-79
2022/06/22 14:04:48;;;;;;;2.72;1.00;;;28.50;98.70;;;;;;5059497;28;39111;-79
2022/06/22 14:07:26;;;;;;;1.08;0.52;;;28.70;97.40;;;;;;5094526;27;38793;-80
2022/06/22 14:10:17;;;;;;;3.85;1.00;;;28.90;98.90;;;;;;5067137;28;39227;-79
2022/06/22 14:13:06;;;;;;;0.63;0.52;;;28.80;95.10;;;;;;5065676;28;47746;-79